createdAt,value
2018-05-15T00:00:45.676Z,58.50
2018-05-15T00:03:13.752Z,58.13
2018-05-15T00:05:41.824Z,62.17
2018-05-15T00:08:09.928Z,59.70
2018-05-15T00:10:38.007Z,54.67
2018-05-15T00:13:06.056Z,64.10
2018-05-15T00:15:35.843Z,54.10
2018-05-15T00:18:03.907Z,46.07
2018-05-15T00:20:31.960Z,35.77
2018-05-15T00:23:00.808Z,30.10
2018-05-15T00:25:30.404Z,28.90
2018-05-15T00:27:58.531Z,33.80
2018-05-15T00:30:27.352Z,34.93
2018-05-15T00:32:55.609Z,33.13
2018-05-15T00:35:23.677Z,32.93
2018-05-15T00:37:51.739Z,35.43
2018-05-15T00:40:19.792Z,31.40
2018-05-15T00:42:47.863Z,33.73
2018-05-15T00:45:15.925Z,33.80
2018-05-15T00:47:44.035Z,34.53
2018-05-15T00:50:12.099Z,36.73
2018-05-15T00:52:40.170Z,34.97
2018-05-15T00:55:20.112Z,35.30
2018-05-15T00:57:48.229Z,37.20
2018-05-15T01:00:16.592Z,33.53
2018-05-15T01:02:44.766Z,33.67
2018-05-15T01:05:12.951Z,37.40
2018-05-15T01:07:41.066Z,38.40
2018-05-15T01:10:09.994Z,38.57
2018-05-15T01:12:38.540Z,40.37
2018-05-15T01:15:07.390Z,43.50
2018-05-15T01:17:35.598Z,49.73
2018-05-15T01:20:03.655Z,47.13
2018-05-15T01:22:31.748Z,49.57
2018-05-15T01:25:00.636Z,51.90
2018-05-15T01:27:29.457Z,50.33
2018-05-15T01:29:58.377Z,52.73
2018-05-15T01:32:26.437Z,54.27
2018-05-15T01:34:56.070Z,55.73
2018-05-15T01:37:24.383Z,57.50
2018-05-15T01:39:53.235Z,62.60
2018-05-15T01:42:21.407Z,59.63
2018-05-15T01:44:49.480Z,65.37
2018-05-15T01:47:17.632Z,60.47
2018-05-15T01:49:45.819Z,62.33
2018-05-15T01:52:13.884Z,60.77
2018-05-15T01:54:42.452Z,62.47
2018-05-15T01:57:10.497Z,59.83
2018-05-15T01:59:38.547Z,52.27
2018-05-15T02:02:07.632Z,62.73
2018-05-15T02:04:35.687Z,53.03
2018-05-15T02:07:03.749Z,48.50
2018-05-15T02:09:31.936Z,50.03
2018-05-15T02:12:00.029Z,47.97
2018-05-15T02:14:29.024Z,46.37
2018-05-15T02:16:57.296Z,48.10
2018-05-15T02:19:26.232Z,42.47
2018-05-15T02:22:11.222Z,49.57
2018-05-15T02:24:39.295Z,50.17
2018-05-15T02:27:07.425Z,48.30
2018-05-15T02:29:35.580Z,50.43
2018-05-15T02:32:03.665Z,51.80
2018-05-15T02:34:32.505Z,52.43
2018-05-15T02:37:00.700Z,52.77
2018-05-15T02:39:29.768Z,55.77
2018-05-15T02:41:57.824Z,53.73
2018-05-15T02:44:25.900Z,57.63
2018-05-15T02:46:53.959Z,57.47
2018-05-15T02:49:22.348Z,50.87
2018-05-15T02:51:50.417Z,55.27
2018-05-15T02:54:18.473Z,57.70
2018-05-15T02:56:46.861Z,64.77
2018-05-15T02:59:14.916Z,56.23
2018-05-15T03:01:43.752Z,56.40
2018-05-15T03:04:11.819Z,56.97
2018-05-15T03:06:39.873Z,53.13
2018-05-15T03:09:07.934Z,52.30
2018-05-15T03:11:36.242Z,59.50
2018-05-15T03:14:04.202Z,57.80
2018-05-15T03:16:32.273Z,56.00
2018-05-15T03:19:00.331Z,57.87
2018-05-15T03:21:28.405Z,54.03
2018-05-15T03:23:56.468Z,54.40
2018-05-15T03:26:24.853Z,53.43
2018-05-15T03:28:52.904Z,53.73
2018-05-15T03:31:25.501Z,59.07
2018-05-15T03:33:53.571Z,56.53
2018-05-15T03:36:21.644Z,62.90
2018-05-15T03:38:49.707Z,61.57
2018-05-15T03:41:17.775Z,65.00
2018-05-15T03:43:45.859Z,70.27
2018-05-15T03:46:13.940Z,66.97
2018-05-15T03:48:42.089Z,69.53
2018-05-15T03:51:10.555Z,70.37
2018-05-15T03:53:38.816Z,72.40
2018-05-15T03:56:06.896Z,75.07
2018-05-15T03:58:34.963Z,79.87
2018-05-15T04:04:14.653Z,69.03
2018-05-15T04:06:54.848Z,71.47
2018-05-15T04:09:23.020Z,69.17
2018-05-15T04:11:51.080Z,67.00
2018-05-15T04:14:19.144Z,65.63
2018-05-15T04:16:47.195Z,71.37
2018-05-15T04:19:15.245Z,67.73
2018-05-15T04:21:43.296Z,65.90
2018-05-15T04:24:11.348Z,64.37
2018-05-15T04:26:39.401Z,70.37
2018-05-15T04:29:07.548Z,78.23
2018-05-15T04:31:35.919Z,72.07
2018-05-15T04:34:03.961Z,74.77
2018-05-15T04:36:32.006Z,76.23
2018-05-15T04:39:00.063Z,73.27
2018-05-15T04:41:28.101Z,74.43
2018-05-15T04:43:56.501Z,71.00
2018-05-15T04:46:24.542Z,77.40
2018-05-15T04:48:52.584Z,77.07
2018-05-15T04:51:20.910Z,73.07
2018-05-15T04:53:49.719Z,67.27
2018-05-15T04:56:17.754Z,70.87
2018-05-15T04:58:45.806Z,73.60
2018-05-15T05:01:14.624Z,75.73
2018-05-15T05:03:42.664Z,68.40
2018-05-15T05:06:10.725Z,67.20
2018-05-15T05:08:38.763Z,66.53
2018-05-15T05:11:06.820Z,58.73
2018-05-15T05:13:35.620Z,50.33
2018-05-15T05:16:04.089Z,52.83
2018-05-15T05:18:32.170Z,56.13
2018-05-15T05:21:00.509Z,54.10
2018-05-15T05:23:28.515Z,45.90
2018-05-15T05:25:56.573Z,50.10
2018-05-15T05:28:24.712Z,50.93
2018-05-15T05:30:52.886Z,53.03
2018-05-15T05:33:20.937Z,48.83
2018-05-15T05:35:48.993Z,44.80
2018-05-15T05:38:17.047Z,43.67
2018-05-15T05:40:45.093Z,43.90
2018-05-15T05:43:13.135Z,44.67
2018-05-15T05:45:41.184Z,45.33
2018-05-15T05:48:09.416Z,44.87
2018-05-15T05:50:37.467Z,42.37
2018-05-15T05:53:05.523Z,38.60
2018-05-15T05:55:33.720Z,38.43
2018-05-15T05:58:02.165Z,41.07
2018-05-15T06:00:30.979Z,42.20
2018-05-15T06:02:59.032Z,39.27
2018-05-15T06:05:27.096Z,38.03
2018-05-15T06:07:55.123Z,41.07
2018-05-15T06:10:23.549Z,38.03
2018-05-15T06:12:51.575Z,40.47
2018-05-15T06:15:19.644Z,37.93
2018-05-15T06:17:47.697Z,36.73
2018-05-15T06:20:15.770Z,34.83
2018-05-15T06:22:43.818Z,33.83
2018-05-15T06:25:11.870Z,34.57
2018-05-15T06:27:40.688Z,39.03
2018-05-15T06:30:08.750Z,40.10
2018-05-15T06:32:36.780Z,34.00
2018-05-15T06:35:04.829Z,31.57
2018-05-15T06:37:32.887Z,32.57
2018-05-15T06:40:01.259Z,33.53
2018-05-15T06:42:29.332Z,34.93
2018-05-15T06:44:57.385Z,33.90
2018-05-15T06:47:25.450Z,33.83
2018-05-15T06:49:53.483Z,35.03
2018-05-15T06:52:21.523Z,33.80
2018-05-15T06:54:49.590Z,36.07
2018-05-15T06:57:21.077Z,39.80
2018-05-15T06:59:49.138Z,32.13
2018-05-15T07:02:17.179Z,30.50
2018-05-15T07:04:45.234Z,31.53
2018-05-15T07:07:13.291Z,28.60
2018-05-15T07:09:41.340Z,30.50
2018-05-15T07:12:09.387Z,28.77
2018-05-15T07:14:37.431Z,28.90
2018-05-15T07:17:05.483Z,32.07
2018-05-15T07:19:34.303Z,33.13
2018-05-15T07:22:02.330Z,31.27
2018-05-15T07:24:30.383Z,33.77
2018-05-15T07:26:58.454Z,33.20
2018-05-15T07:29:26.511Z,27.70
2018-05-15T07:31:54.607Z,28.23
2018-05-15T07:34:22.652Z,28.40
2018-05-15T07:36:50.704Z,29.27
2018-05-15T07:39:18.766Z,39.30
2018-05-15T07:41:47.033Z,34.20
2018-05-15T07:44:15.089Z,27.73
2018-05-15T07:46:43.149Z,28.27
2018-05-15T07:49:11.208Z,26.73
2018-05-15T07:51:39.264Z,25.60
2018-05-15T07:54:07.359Z,24.53
2018-05-15T07:56:35.433Z,25.10
2018-05-15T07:59:03.479Z,22.90
2018-05-15T08:01:31.536Z,25.00
2018-05-15T08:03:59.588Z,23.13
2018-05-15T08:06:27.635Z,23.23
2018-05-15T08:08:55.699Z,21.67
2018-05-15T08:11:23.744Z,20.90
2018-05-15T08:13:51.951Z,19.73
2018-05-15T08:16:20.013Z,18.37
2018-05-15T08:18:48.045Z,18.83
2018-05-15T08:21:16.095Z,19.63
2018-05-15T08:23:44.153Z,18.83
2018-05-15T08:26:12.199Z,19.53
2018-05-15T08:28:40.250Z,19.50
2018-05-15T08:31:08.291Z,20.43
2018-05-15T08:33:36.499Z,21.17
2018-05-15T08:36:04.550Z,17.53
2018-05-15T08:38:32.600Z,19.30
2018-05-15T08:41:00.721Z,19.20
2018-05-15T08:43:28.779Z,18.10
2018-05-15T08:45:56.824Z,17.73
2018-05-15T08:48:24.901Z,17.13
2018-05-15T08:50:52.956Z,16.03
2018-05-15T08:53:21.081Z,15.93
2018-05-15T08:55:49.144Z,15.13
2018-05-15T08:58:17.203Z,14.43
2018-05-15T09:00:45.250Z,14.67
2018-05-15T09:03:13.322Z,14.43
2018-05-15T09:05:41.370Z,16.07
2018-05-15T09:08:09.431Z,15.83
2018-05-15T09:10:37.494Z,15.77
2018-05-15T09:13:05.556Z,15.70
2018-05-15T09:15:33.612Z,16.17
2018-05-15T09:18:01.665Z,16.20
2018-05-15T09:20:30.022Z,15.23
2018-05-15T09:22:58.057Z,14.30
2018-05-15T09:25:26.099Z,15.30
2018-05-15T09:27:54.151Z,16.70
2018-05-15T09:30:22.399Z,14.83
2018-05-15T09:32:50.456Z,14.80
2018-05-15T09:35:18.516Z,15.00
2018-05-15T09:37:46.573Z,15.33
2018-05-15T09:40:14.637Z,15.97
2018-05-15T09:42:42.675Z,16.83
2018-05-15T09:45:10.715Z,15.97
2018-05-15T09:47:38.773Z,14.93
2018-05-15T09:50:06.831Z,16.10
2018-05-15T09:52:34.901Z,15.07
2018-05-15T09:55:02.960Z,15.77
2018-05-15T09:57:31.045Z,15.17
2018-05-15T10:00:00.830Z,14.60
2018-05-15T10:02:28.877Z,16.43
2018-05-15T10:04:56.923Z,12.83
2018-05-15T10:07:24.982Z,13.80
2018-05-15T10:09:53.019Z,12.93
2018-05-15T10:12:21.085Z,14.33
2018-05-15T10:14:49.124Z,11.80
2018-05-15T10:17:17.210Z,12.00
2018-05-15T10:19:45.253Z,11.60
2018-05-15T10:22:13.313Z,12.23
2018-05-15T10:24:41.360Z,11.77
2018-05-15T10:27:09.420Z,12.50
2018-05-15T10:29:37.459Z,11.50
2018-05-15T10:32:05.518Z,11.80
2018-05-15T10:34:33.561Z,13.73
2018-05-15T10:37:01.691Z,12.93
2018-05-15T10:39:29.733Z,13.60
2018-05-15T10:41:57.786Z,12.07
2018-05-15T10:44:25.824Z,12.23
2018-05-15T10:46:53.880Z,14.97
2018-05-15T10:49:21.974Z,11.13
2018-05-15T10:51:50.030Z,12.00
2018-05-15T10:54:18.079Z,10.23
2018-05-15T10:56:46.111Z,10.67
2018-05-15T10:59:14.240Z,10.70
2018-05-15T11:01:42.275Z,12.90
2018-05-15T11:04:10.328Z,9.50
2018-05-15T11:06:38.360Z,9.57
2018-05-15T11:09:06.545Z,9.73
2018-05-15T11:11:34.581Z,9.77
2018-05-15T11:14:02.634Z,8.57
2018-05-15T11:16:30.677Z,10.47
2018-05-15T11:19:10.508Z,8.67
2018-05-15T11:21:50.216Z,9.80
2018-05-15T11:24:25.022Z,8.93
2018-05-15T11:26:53.053Z,8.70
2018-05-15T11:29:21.172Z,11.40
2018-05-15T11:31:49.212Z,8.50
2018-05-15T11:34:17.269Z,7.47
2018-05-15T11:36:46.073Z,8.20
2018-05-15T11:39:14.125Z,8.73
2018-05-15T11:41:42.278Z,8.50
2018-05-15T11:44:10.384Z,9.73
2018-05-15T11:46:38.426Z,9.70
2018-05-15T11:49:07.148Z,9.80
2018-05-15T11:51:35.145Z,9.27
2018-05-15T11:54:02.625Z,11.43
2018-05-15T11:56:30.673Z,7.23
2018-05-15T11:58:58.685Z,8.33
2018-05-15T12:01:26.731Z,7.47
2018-05-15T12:03:54.830Z,9.90
2018-05-15T12:06:22.991Z,7.87
2018-05-15T12:08:51.068Z,7.37
2018-05-15T12:11:19.102Z,7.17
2018-05-15T12:13:47.140Z,6.27
2018-05-15T12:16:15.187Z,11.10
2018-05-15T12:18:43.237Z,10.23
2018-05-15T12:21:11.282Z,6.73
2018-05-15T12:23:39.328Z,6.43
2018-05-15T12:26:07.373Z,11.50
2018-05-15T12:28:35.429Z,6.37
2018-05-15T12:31:03.486Z,7.73
2018-05-15T12:33:31.532Z,7.10
2018-05-15T12:35:59.644Z,8.37
2018-05-15T12:38:27.700Z,10.53
2018-05-15T12:40:56.010Z,7.20
2018-05-15T12:43:24.052Z,8.23
2018-05-15T12:45:52.083Z,7.20
2018-05-15T12:48:20.126Z,11.47
2018-05-15T12:50:48.165Z,9.60
2018-05-15T12:53:16.228Z,9.67
2018-05-15T12:55:44.268Z,6.67
2018-05-15T12:58:12.297Z,8.50
2018-05-15T13:00:40.348Z,6.90
2018-05-15T13:03:08.450Z,6.67
2018-05-15T13:05:36.496Z,6.60
2018-05-15T13:08:04.516Z,10.10
2018-05-15T13:10:32.564Z,8.83
2018-05-15T13:13:00.602Z,6.17
2018-05-15T13:15:28.653Z,6.67
2018-05-15T13:17:56.707Z,5.50
2018-05-15T13:20:25.509Z,6.40
2018-05-15T13:22:53.548Z,6.27
2018-05-15T13:25:21.583Z,6.07
2018-05-15T13:27:49.625Z,9.30
2018-05-15T13:30:17.712Z,9.53
2018-05-15T13:32:45.764Z,5.33
2018-05-15T13:35:13.821Z,5.30
2018-05-15T13:37:43.344Z,6.77
2018-05-15T13:40:11.392Z,6.27
2018-05-15T13:42:39.429Z,6.03
2018-05-15T13:45:07.488Z,4.93
2018-05-15T13:47:35.529Z,7.03
2018-05-15T13:50:03.582Z,8.30
2018-05-15T13:52:31.607Z,6.90
2018-05-15T13:54:59.659Z,6.03
2018-05-15T13:57:27.704Z,6.10
2018-05-15T13:59:55.740Z,5.33
2018-05-15T14:02:23.784Z,6.30
2018-05-15T14:04:51.836Z,5.47
2018-05-15T14:07:19.864Z,5.10
2018-05-15T14:09:47.915Z,5.73
2018-05-15T14:12:15.975Z,5.10
2018-05-15T14:14:44.021Z,8.10
2018-05-15T14:17:12.052Z,5.27
2018-05-15T14:19:40.092Z,5.30
2018-05-15T14:22:08.808Z,5.00
2018-05-15T14:24:37.007Z,5.77
2018-05-15T14:27:09.133Z,5.30
2018-05-15T14:29:37.189Z,4.10
2018-05-15T14:32:05.235Z,4.63
2018-05-15T14:34:33.277Z,5.77
2018-05-15T14:37:01.600Z,5.47
2018-05-15T14:39:29.668Z,4.23
2018-05-15T14:42:09.537Z,4.90
2018-05-15T14:44:37.594Z,5.87
2018-05-15T14:47:05.647Z,6.47
2018-05-15T14:49:33.684Z,5.33
2018-05-15T14:52:01.728Z,6.30
2018-05-15T14:54:29.767Z,7.33
2018-05-15T14:56:57.813Z,4.30
2018-05-15T14:59:25.866Z,13.60
2018-05-15T15:01:53.912Z,7.67
2018-05-15T15:04:21.946Z,6.83
2018-05-15T15:06:49.982Z,11.27
2018-05-15T15:09:18.028Z,6.73
2018-05-15T15:11:46.081Z,4.70
2018-05-15T15:14:14.104Z,4.50
2018-05-15T15:16:42.157Z,4.70
2018-05-15T15:19:10.204Z,5.97
2018-05-15T15:21:38.252Z,10.13
2018-05-15T15:24:06.288Z,4.97
2018-05-15T15:26:34.337Z,5.00
2018-05-15T15:29:02.389Z,11.03
2018-05-15T15:31:30.444Z,8.50
2018-05-15T15:33:58.459Z,7.70
2018-05-15T15:36:26.516Z,6.07
2018-05-15T15:38:54.549Z,8.20
2018-05-15T15:41:22.593Z,5.07
2018-05-15T15:43:50.725Z,5.67
2018-05-15T15:46:18.680Z,4.57
2018-05-15T15:48:49.912Z,6.20
2018-05-15T15:51:17.955Z,10.03
2018-05-15T15:53:46.008Z,16.33
2018-05-15T15:56:14.057Z,15.33
2018-05-15T15:58:42.108Z,14.13
2018-05-15T16:01:10.936Z,15.67
2018-05-15T16:03:39.128Z,15.73
2018-05-15T16:06:07.179Z,10.07
2018-05-15T16:08:35.233Z,8.23
2018-05-15T16:11:03.289Z,9.83
2018-05-15T16:13:31.332Z,12.30
2018-05-15T16:15:59.385Z,9.67
2018-05-15T16:18:27.446Z,8.70
2018-05-15T16:20:55.485Z,9.43
2018-05-15T16:23:23.514Z,9.23
2018-05-15T16:25:51.597Z,9.53
2018-05-15T16:28:19.646Z,8.57
2018-05-15T16:30:47.686Z,9.73
2018-05-15T16:33:15.742Z,12.27
2018-05-15T16:35:43.799Z,13.50
2018-05-15T16:38:11.840Z,11.13
2018-05-15T16:40:39.894Z,11.50
2018-05-15T16:43:07.948Z,12.37
2018-05-15T16:45:36.009Z,12.10
2018-05-15T16:48:04.829Z,12.97
2018-05-15T16:50:32.880Z,16.03
2018-05-15T16:53:00.954Z,15.60
2018-05-15T16:55:29.005Z,11.93
2018-05-15T16:57:57.067Z,18.10
2018-05-15T17:00:25.121Z,15.73
2018-05-15T17:02:53.343Z,13.37
2018-05-15T17:05:21.392Z,19.43
2018-05-15T17:07:49.590Z,13.23
2018-05-15T17:10:17.629Z,12.30
2018-05-15T17:12:45.714Z,12.70
2018-05-15T17:15:13.751Z,12.83
2018-05-15T17:17:41.814Z,14.00
2018-05-15T17:20:09.865Z,12.40
2018-05-15T17:22:37.949Z,9.27
2018-05-15T17:25:06.495Z,11.30
2018-05-15T17:27:38.447Z,10.60
2018-05-15T17:30:07.744Z,10.53
2018-05-15T17:32:35.972Z,10.97
2018-05-15T17:35:04.344Z,10.90
2018-05-15T17:37:33.635Z,9.77
2018-05-15T17:40:02.486Z,9.53
2018-05-15T17:42:31.026Z,7.90
2018-05-15T17:45:00.241Z,7.67
2018-05-15T17:47:28.520Z,7.07
2018-05-15T17:49:56.836Z,8.70
2018-05-15T17:52:26.099Z,8.07
2018-05-15T17:54:54.300Z,6.70
2018-05-15T17:57:23.087Z,6.63
2018-05-15T17:59:51.200Z,9.53
2018-05-15T18:02:19.140Z,8.27
2018-05-15T18:04:47.204Z,8.70
2018-05-15T18:07:15.240Z,8.27
2018-05-15T18:09:43.293Z,8.27
2018-05-15T18:12:12.104Z,11.30
2018-05-15T18:14:40.322Z,8.43
2018-05-15T18:17:10.983Z,9.23
2018-05-15T18:19:39.033Z,7.50
2018-05-15T18:22:07.076Z,10.20
2018-05-15T18:24:35.120Z,8.13
2018-05-15T18:27:03.847Z,8.93
2018-05-15T18:29:31.892Z,10.50
2018-05-15T18:31:59.946Z,11.20
2018-05-15T18:34:28.752Z,9.93
2018-05-15T18:36:56.811Z,9.00
2018-05-15T18:39:24.993Z,9.93
2018-05-15T18:41:53.189Z,10.03
2018-05-15T18:44:21.255Z,10.57
2018-05-15T18:46:49.367Z,9.77
2018-05-15T18:49:17.415Z,10.53
2018-05-15T18:51:45.470Z,13.13
2018-05-15T18:54:13.528Z,11.90
2018-05-15T18:56:41.742Z,9.50
2018-05-15T18:59:09.895Z,11.33
2018-05-15T19:01:38.089Z,11.87
2018-05-15T19:04:06.117Z,11.37
2018-05-15T19:06:34.152Z,11.50
2018-05-15T19:09:03.131Z,10.30
2018-05-15T19:11:31.172Z,10.20
2018-05-15T19:13:59.281Z,10.67
2018-05-15T19:16:28.019Z,11.43
2018-05-15T19:18:56.068Z,12.43
2018-05-15T19:21:24.211Z,11.53
2018-05-15T19:23:52.260Z,11.60
2018-05-15T19:26:20.296Z,11.40
2018-05-15T19:28:48.352Z,11.87
2018-05-15T19:31:16.634Z,10.87
2018-05-15T19:33:50.244Z,11.30
2018-05-15T19:36:18.276Z,12.27
2018-05-15T19:38:46.345Z,12.00
2018-05-15T19:41:19.189Z,12.63
2018-05-15T19:43:47.234Z,15.03
2018-05-15T19:46:16.262Z,15.23
2018-05-15T19:48:44.316Z,13.20
2018-05-15T19:51:12.416Z,14.50
2018-05-15T19:53:40.474Z,14.37
2018-05-15T19:56:08.660Z,14.73
2018-05-15T19:58:36.707Z,15.67
2018-05-15T20:01:04.764Z,16.20
2018-05-15T20:03:32.807Z,15.63
2018-05-15T20:06:00.864Z,12.90
2018-05-15T20:08:28.933Z,13.43
2018-05-15T20:10:56.952Z,13.00
2018-05-15T20:13:25.000Z,13.90
2018-05-15T20:15:53.144Z,14.03
2018-05-15T20:18:21.206Z,16.50
2018-05-15T20:20:49.337Z,14.63
2018-05-15T20:23:17.440Z,14.27
2018-05-15T20:25:45.534Z,14.70
2018-05-15T20:28:13.544Z,13.70
2018-05-15T20:30:42.240Z,13.70
2018-05-15T20:33:10.289Z,14.33
2018-05-15T20:35:38.337Z,14.27
2018-05-15T20:38:06.389Z,15.47
2018-05-15T20:40:34.444Z,15.53
2018-05-15T20:43:02.500Z,14.23
2018-05-15T20:45:30.573Z,15.87
2018-05-15T20:47:58.611Z,14.70
2018-05-15T20:50:26.679Z,19.53
2018-05-15T20:52:54.712Z,17.53
2018-05-15T20:55:22.773Z,15.77
2018-05-15T20:57:50.812Z,15.27
2018-05-15T21:00:19.642Z,15.13
2018-05-15T21:02:47.712Z,17.47
2018-05-15T21:05:15.765Z,15.70
2018-05-15T21:07:43.819Z,15.87
2018-05-15T21:10:11.929Z,16.43
2018-05-15T21:12:39.988Z,14.57
2018-05-15T21:15:08.064Z,14.53
2018-05-15T21:17:36.090Z,16.30
2018-05-15T21:20:04.262Z,13.70
2018-05-15T21:22:32.426Z,14.37
2018-05-15T21:25:00.491Z,25.00
2018-05-15T21:27:28.582Z,16.93
2018-05-15T21:29:56.622Z,15.60
2018-05-15T21:32:24.706Z,16.03
2018-05-15T21:34:52.771Z,16.97
2018-05-15T21:37:20.827Z,17.30
2018-05-15T21:39:48.882Z,16.13
2018-05-15T21:42:16.935Z,16.60
2018-05-15T21:44:45.072Z,17.20
2018-05-15T21:47:13.146Z,18.70
2018-05-15T21:49:41.168Z,16.93
2018-05-15T21:52:09.256Z,17.87
2018-05-15T21:54:38.194Z,17.17
2018-05-15T21:57:06.227Z,15.87
2018-05-15T21:59:35.088Z,16.77
2018-05-15T22:02:03.147Z,18.47
2018-05-15T22:04:31.207Z,16.90
2018-05-15T22:06:59.269Z,16.90
2018-05-15T22:09:27.434Z,16.97
2018-05-15T22:12:07.051Z,16.60
2018-05-15T22:14:46.777Z,16.87
2018-05-15T22:17:26.835Z,17.67
2018-05-15T22:20:06.756Z,15.20
2018-05-15T22:22:34.301Z,15.57
2018-05-15T22:25:02.335Z,15.40
2018-05-15T22:27:30.560Z,17.53
2018-05-15T22:29:59.312Z,16.57
2018-05-15T22:32:27.349Z,16.57
2018-05-15T22:34:55.388Z,13.57
2018-05-15T22:37:25.137Z,16.80
2018-05-15T22:39:53.551Z,16.57
2018-05-15T22:42:21.600Z,17.37
2018-05-15T22:44:49.650Z,14.27
2018-05-15T22:47:17.734Z,13.97
2018-05-15T22:49:45.804Z,15.80
2018-05-15T22:52:13.850Z,15.03
2018-05-15T22:54:41.892Z,16.20
2018-05-15T22:57:10.054Z,16.37
2018-05-15T22:59:38.119Z,17.87
2018-05-15T23:02:06.306Z,17.17
2018-05-15T23:04:34.361Z,16.53
2018-05-15T23:07:02.430Z,16.50
2018-05-15T23:09:30.492Z,15.93
2018-05-15T23:11:58.543Z,16.33
2018-05-15T23:14:26.572Z,16.10
2018-05-15T23:16:54.644Z,17.53
2018-05-15T23:19:22.711Z,15.90
2018-05-15T23:21:54.700Z,15.30
2018-05-15T23:24:23.516Z,12.70
2018-05-15T23:26:52.367Z,13.57
2018-05-15T23:29:21.165Z,15.13
2018-05-15T23:31:49.212Z,15.20
2018-05-15T23:34:17.249Z,16.13
2018-05-15T23:36:45.324Z,15.17
2018-05-15T23:39:13.403Z,14.83
2018-05-15T23:41:41.411Z,14.47
2018-05-15T23:44:10.348Z,13.33
2018-05-15T23:46:38.396Z,15.60
2018-05-15T23:49:06.481Z,14.57
2018-05-15T23:51:34.531Z,15.37
2018-05-15T23:54:02.588Z,15.20
2018-05-15T23:56:31.412Z,15.77
2018-05-15T23:58:59.520Z,14.37
